createdAt,value
2023-05-08T00:02:35.514Z,-71
2023-05-08T00:07:38.017Z,-70
2023-05-08T00:12:39.550Z,-73
2023-05-08T00:17:41.444Z,-72
2023-05-08T00:22:43.144Z,-73
2023-05-08T00:27:44.693Z,-71
2023-05-08T00:32:47.063Z,-72
2023-05-08T00:37:48.734Z,-72
2023-05-08T00:42:50.239Z,-72
2023-05-08T00:47:52.064Z,-73
2023-05-08T00:52:54.088Z,-72
2023-05-08T00:57:55.716Z,-73
2023-05-08T01:02:59.154Z,-72
2023-05-08T01:08:00.804Z,-70
2023-05-08T01:13:18.819Z,-72
2023-05-08T01:18:35.030Z,-72
2023-05-08T01:23:55.252Z,-69
2023-05-08T01:29:21.245Z,-73
2023-05-08T01:34:30.837Z,-73
2023-05-08T01:40:19.263Z,-74
2023-05-08T01:45:33.179Z,-74
2023-05-08T01:50:41.224Z,-74
2023-05-08T01:55:46.501Z,-70
2023-05-08T02:00:48.919Z,-63
2023-05-08T02:05:52.359Z,-72
2023-05-08T02:10:56.135Z,-72
2023-05-08T02:15:59.254Z,-73
2023-05-08T02:21:04.125Z,-73
2023-05-08T02:26:06.018Z,-72
2023-05-08T02:31:09.678Z,-73
2023-05-08T02:36:14.157Z,-71
2023-05-08T02:41:18.204Z,-73
2023-05-08T02:46:35.045Z,-72
2023-05-08T02:52:01.826Z,-73
2023-05-08T02:57:14.833Z,-73
2023-05-08T03:02:22.398Z,-72
2023-05-08T03:07:28.734Z,-72
2023-05-08T03:12:35.012Z,-73
2023-05-08T03:17:42.821Z,-72
2023-05-08T03:22:46.701Z,-73
2023-05-08T03:27:50.471Z,-72
2023-05-08T03:32:53.649Z,-72
2023-05-08T03:37:55.210Z,-73
2023-05-08T03:42:58.389Z,-73
2023-05-08T03:48:00.646Z,-69
2023-05-08T03:53:02.556Z,-70
2023-05-08T03:58:13.362Z,-70
2023-05-08T04:03:24.187Z,-72
2023-05-08T04:08:32.275Z,-71
2023-05-08T04:13:39.430Z,-75
2023-05-08T04:18:46.325Z,-72
2023-05-08T04:23:51.767Z,-73
2023-05-08T04:28:53.902Z,-75
2023-05-08T04:33:55.934Z,-74
2023-05-08T04:38:59.079Z,-75
2023-05-08T04:44:01.710Z,-66
2023-05-08T04:49:03.268Z,-75
2023-05-08T04:54:04.810Z,-69
2023-05-08T04:59:06.767Z,-65
2023-05-08T05:04:08.327Z,-61
2023-05-08T05:09:11.830Z,-73
2023-05-08T05:14:13.342Z,-73
2023-05-08T05:19:14.845Z,-64
2023-05-08T05:24:16.711Z,-72
2023-05-08T05:29:18.264Z,-72
2023-05-08T05:34:19.832Z,-72
2023-05-08T05:39:21.331Z,-66
2023-05-08T05:44:22.887Z,-71
2023-05-08T05:49:24.485Z,-71
2023-05-08T05:54:26.491Z,-71
2023-05-08T05:59:28.013Z,-77
2023-05-08T06:04:29.693Z,-82
2023-05-08T06:09:31.317Z,-81
2023-05-08T06:14:32.803Z,-82
2023-05-08T06:19:34.343Z,-70
2023-05-08T06:24:36.489Z,-78
2023-05-08T06:29:38.012Z,-68
2023-05-08T06:34:39.508Z,-66
2023-05-08T06:39:41.244Z,-64
2023-05-08T06:44:42.873Z,-63
2023-05-08T06:49:44.603Z,-64
2023-05-08T06:54:46.230Z,-65
2023-05-08T06:59:47.727Z,-64
2023-05-08T07:04:49.327Z,-65
2023-05-08T07:09:50.933Z,-65
2023-05-08T07:14:52.433Z,-66
2023-05-08T07:19:53.961Z,-64
2023-05-08T07:24:55.470Z,-72
2023-05-08T07:29:58.862Z,-68
2023-05-08T07:35:00.544Z,-65
2023-05-08T07:40:02.093Z,-66
2023-05-08T07:45:05.764Z,-67
2023-05-08T07:50:07.677Z,-67
2023-05-08T07:55:10.219Z,-65
2023-05-08T08:00:20.955Z,-66
2023-05-08T08:05:22.519Z,-67
2023-05-08T08:10:24.066Z,-67
2023-05-08T08:15:25.574Z,-66
2023-05-08T08:20:27.534Z,-66
2023-05-08T08:25:29.118Z,-67
2023-05-08T08:30:37.011Z,-66
2023-05-08T08:35:38.481Z,-67
2023-05-08T08:40:41.111Z,-67
2023-05-08T08:45:42.600Z,-67
2023-05-08T08:50:48.732Z,-67
2023-05-08T08:55:53.840Z,-67
2023-05-08T09:00:57.100Z,-66
2023-05-08T09:06:03.396Z,-67
2023-05-08T09:11:05.020Z,-67
2023-05-08T09:16:06.945Z,-67
2023-05-08T09:21:08.493Z,-67
2023-05-08T09:26:10.006Z,-66
2023-05-08T09:31:11.672Z,-67
2023-05-08T09:36:28.765Z,-66
2023-05-08T09:41:30.415Z,-66
2023-05-08T09:46:34.100Z,-67
2023-05-08T09:51:35.762Z,-67
2023-05-08T09:56:39.576Z,-66
2023-05-08T10:01:42.132Z,-66
2023-05-08T10:06:56.583Z,-67
2023-05-08T10:11:58.523Z,-67
2023-05-08T10:17:05.884Z,-67
2023-05-08T10:22:11.389Z,-66
2023-05-08T10:27:48.167Z,-66
2023-05-08T10:32:55.379Z,-65
2023-05-08T10:37:58.639Z,-64
2023-05-08T10:43:00.647Z,-60
2023-05-08T10:48:19.409Z,-66
2023-05-08T10:53:31.432Z,-64
2023-05-08T10:58:34.508Z,-66
2023-05-08T11:03:41.371Z,-61
2023-05-08T11:08:45.204Z,-60
2023-05-08T11:13:58.482Z,-63
2023-05-08T11:19:21.197Z,-63
2023-05-08T11:24:36.063Z,-60
2023-05-08T11:29:38.575Z,-63
2023-05-08T11:34:43.489Z,-61
2023-05-08T11:39:45.804Z,-62
2023-05-08T11:44:47.638Z,-62
2023-05-08T11:49:49.202Z,-63
2023-05-08T11:54:50.733Z,-64
2023-05-08T11:59:52.291Z,-63
2023-05-08T12:04:54.552Z,-62
2023-05-08T12:09:56.082Z,-60
2023-05-08T12:14:57.570Z,-63
2023-05-08T12:20:16.962Z,-64
2023-05-08T12:25:20.709Z,-63
2023-05-08T12:30:29.569Z,-63
2023-05-08T12:35:32.086Z,-62
2023-05-08T12:40:36.653Z,-62
2023-05-08T12:45:40.906Z,-63
2023-05-08T12:50:45.808Z,-63
2023-05-08T12:55:52.847Z,-62
2023-05-08T13:01:10.235Z,-63
2023-05-08T13:06:22.322Z,-62
2023-05-08T13:11:31.797Z,-62
2023-05-08T13:16:42.948Z,-63
2023-05-08T13:21:47.669Z,-65
2023-05-08T13:26:49.161Z,-66
2023-05-08T13:31:50.695Z,-63
2023-05-08T13:36:52.564Z,-64
2023-05-08T13:41:54.528Z,-64
2023-05-08T13:46:56.129Z,-64
2023-05-08T13:51:57.628Z,-64
2023-05-08T13:56:59.198Z,-65
2023-05-08T14:02:00.971Z,-67
2023-05-08T14:07:02.565Z,-65
2023-05-08T14:12:04.460Z,-64
2023-05-08T14:17:06.562Z,-67
2023-05-08T14:22:08.067Z,-66
2023-05-08T14:27:09.979Z,-67
2023-05-08T14:32:11.784Z,-64
2023-05-08T14:37:13.381Z,-67
2023-05-08T14:42:22.896Z,-70
2023-05-08T14:47:25.857Z,-64
2023-05-08T14:52:27.510Z,-69
2023-05-08T14:57:29.072Z,-68
2023-05-08T15:02:30.668Z,-69
2023-05-08T15:07:32.620Z,-69
2023-05-08T15:12:34.454Z,-68
2023-05-08T15:17:36.625Z,-69
2023-05-08T15:22:38.248Z,-66
2023-05-08T15:27:39.822Z,-72
2023-05-08T15:32:43.392Z,-70
2023-05-08T15:37:44.998Z,-70
2023-05-08T15:42:46.842Z,-67
2023-05-08T15:47:48.493Z,-70
2023-05-08T15:52:50.021Z,-70
2023-05-08T15:57:51.559Z,-69
2023-05-08T16:02:53.131Z,-69
2023-05-08T16:07:55.612Z,-69
2023-05-08T16:12:57.216Z,-71
2023-05-08T16:17:58.793Z,-70
2023-05-08T16:23:00.439Z,-70
2023-05-08T16:28:02.002Z,-70
2023-05-08T16:33:03.674Z,-67
2023-05-08T16:38:06.170Z,-70
2023-05-08T16:43:08.755Z,-70
2023-05-08T16:48:10.412Z,-71
2023-05-08T16:53:12.013Z,-71
2023-05-08T16:58:13.698Z,-66
2023-05-08T17:03:15.396Z,-68
2023-05-08T17:08:17.697Z,-74
2023-05-08T17:13:19.269Z,-75
2023-05-08T17:18:20.972Z,-76
2023-05-08T17:23:22.558Z,-75
2023-05-08T17:28:24.433Z,-67
2023-05-08T17:33:26.049Z,-66
2023-05-08T17:38:28.111Z,-68
2023-05-08T17:43:30.946Z,-66
2023-05-08T17:48:33.382Z,-70
2023-05-08T17:53:35.024Z,-62
2023-05-08T17:58:36.564Z,-67
2023-05-08T18:03:38.262Z,-65
2023-05-08T18:08:41.458Z,-66
2023-05-08T18:13:43.682Z,-66
2023-05-08T18:18:45.648Z,-65
2023-05-08T18:23:47.218Z,-65
2023-05-08T18:28:48.752Z,-72
2023-05-08T18:33:50.250Z,-65
2023-05-08T18:38:51.850Z,-70
2023-05-08T18:43:53.382Z,-67
2023-05-08T18:48:54.886Z,-66
2023-05-08T18:53:57.306Z,-64
2023-05-08T18:59:00.168Z,-61
2023-05-08T19:04:02.821Z,-62
2023-05-08T19:09:04.386Z,-68
2023-05-08T19:14:05.905Z,-66
2023-05-08T19:19:07.500Z,-65
2023-05-08T19:24:09.012Z,-66
2023-05-08T19:29:10.692Z,-68
2023-05-08T19:34:12.209Z,-65
2023-05-08T19:39:14.608Z,-73
2023-05-08T19:44:16.232Z,-71
2023-05-08T19:49:17.743Z,-65
2023-05-08T19:54:19.246Z,-65
2023-05-08T19:59:20.712Z,-69
2023-05-08T20:04:24.139Z,-77
2023-05-08T20:09:25.715Z,-72
2023-05-08T20:14:27.194Z,-65
2023-05-08T20:19:28.762Z,-66
2023-05-08T20:24:30.400Z,-67
2023-05-08T20:29:35.379Z,-62
2023-05-08T20:34:36.920Z,-70
2023-05-08T20:39:38.456Z,-66
2023-05-08T20:44:39.995Z,-67
2023-05-08T20:49:41.498Z,-66
2023-05-08T20:54:45.469Z,-68
2023-05-08T20:59:47.367Z,-67
2023-05-08T21:04:48.902Z,-70
2023-05-08T21:09:50.473Z,-71
2023-05-08T21:14:52.115Z,-69
2023-05-08T21:19:53.668Z,-70
2023-05-08T21:24:55.391Z,-70
2023-05-08T21:29:56.963Z,-70
2023-05-08T21:34:58.517Z,-70
2023-05-08T21:40:00.041Z,-70
2023-05-08T21:45:01.630Z,-69
2023-05-08T21:50:03.850Z,-70
2023-05-08T21:55:08.759Z,-68
2023-05-08T22:00:11.267Z,-72
2023-05-08T22:05:13.014Z,-68
2023-05-08T22:10:14.790Z,-70
2023-05-08T22:15:29.096Z,-67
2023-05-08T22:20:31.983Z,-64
2023-05-08T22:25:33.497Z,-67
2023-05-08T22:30:41.898Z,-70
2023-05-08T22:35:43.602Z,-69
2023-05-08T22:40:47.695Z,-69
2023-05-08T22:45:49.831Z,-68
2023-05-08T22:50:51.758Z,-68
2023-05-08T22:55:53.266Z,-70
2023-05-08T23:00:55.727Z,-70
2023-05-08T23:05:57.290Z,-70
2023-05-08T23:10:58.822Z,-69
2023-05-08T23:16:00.422Z,-69
2023-05-08T23:21:06.665Z,-67
2023-05-08T23:26:08.237Z,-69
2023-05-08T23:31:09.991Z,-69
2023-05-08T23:36:11.689Z,-68
2023-05-08T23:41:13.948Z,-69
2023-05-08T23:46:15.857Z,-69
2023-05-08T23:51:17.349Z,-69
2023-05-08T23:56:18.826Z,-69
